Time;durP1;ratioP1;P1;durP2;ratioP2;P2;SDS_P1;SDS_P2;PMS_P1;PMS_P2;Temp;Humidity;BMP_temperature;BMP_pressure;BME280_temperature;BME280_humidity;BME280_pressure;Samples;Min_cycle;Max_cycle;Signal;HPM_P1;HPM_P2
2023/01/06 00:00:11;;;;;;;4.77;4.57;;;4.80;1.00;;;;;;6259193;28;20273;-57
2023/01/06 00:03:14;;;;;;;5.50;5.00;;;4.80;1.00;;;;;;6280370;28;20241;-56
2023/01/06 00:06:17;;;;;;;5.37;5.07;;;4.90;1.00;;;;;;6283826;28;20256;-58
2023/01/06 00:09:20;;;;;;;5.87;5.33;;;5.10;1.00;;;;;;6281107;28;20239;-57
2023/01/06 00:12:25;;;;;;;6.57;6.17;;;4.90;1.00;;;;;;6284198;28;20244;-55
2023/01/06 00:15:29;;;;;;;5.77;5.37;;;5.10;1.00;;;;;;6284534;28;20239;-57
2023/01/06 00:18:32;;;;;;;8.13;5.70;;;5.20;1.00;;;;;;6279975;28;21021;-57
2023/01/06 00:21:35;;;;;;;6.10;5.53;;;5.00;1.00;;;;;;6259611;28;20392;-57
2023/01/06 00:24:38;;;;;;;8.40;6.47;;;5.20;1.00;;;;;;6258953;28;20226;-57
2023/01/06 00:27:42;;;;;;;6.67;6.07;;;5.30;1.00;;;;;;6269640;28;20241;-55
2023/01/06 00:30:45;;;;;;;6.23;5.70;;;5.30;1.00;;;;;;6284185;28;20311;-56
2023/01/06 00:33:48;;;;;;;9.03;8.13;;;5.50;1.00;;;;;;6275905;28;20593;-56
2023/01/06 00:36:51;;;;;;;13.37;8.03;;;5.40;1.00;;;;;;6262372;28;20599;-56
2023/01/06 00:39:54;;;;;;;11.00;8.93;;;5.50;1.00;;;;;;6283670;28;20241;-55
2023/01/06 00:42:58;;;;;;;10.47;8.30;;;5.50;1.00;;;;;;6283714;28;20244;-57
2023/01/06 00:46:01;;;;;;;11.53;8.37;;;5.50;1.00;;;;;;6265097;28;20238;-56
2023/01/06 00:49:05;;;;;;;6.53;5.93;;;5.40;1.00;;;;;;6258131;28;20619;-56
2023/01/06 00:52:09;;;;;;;9.17;6.50;;;5.20;1.00;;;;;;6262320;28;20589;-57
2023/01/06 00:55:12;;;;;;;6.50;5.90;;;5.10;1.00;;;;;;6279628;28;20409;-56
2023/01/06 00:58:16;;;;;;;7.00;6.37;;;5.40;1.00;;;;;;6258432;28;20238;-57
2023/01/06 01:01:19;;;;;;;6.67;6.07;;;5.40;1.00;;;;;;6269510;28;20244;-57
2023/01/06 01:04:24;;;;;;;6.80;6.03;;;5.30;1.00;;;;;;6277904;28;20233;-57
2023/01/06 01:07:27;;;;;;;12.47;6.80;;;5.10;1.00;;;;;;6278785;28;20240;-57
2023/01/06 01:10:30;;;;;;;6.43;5.97;;;5.10;1.00;;;;;;6282898;28;20686;-57
2023/01/06 01:13:34;;;;;;;6.13;5.30;;;5.00;1.00;;;;;;6283406;28;20244;-56
2023/01/06 01:16:38;;;;;;;6.00;5.50;;;5.00;1.00;;;;;;6276145;28;20249;-56
2023/01/06 01:19:41;;;;;;;11.43;7.23;;;5.30;1.00;;;;;;6274268;28;20233;-57
2023/01/06 01:22:44;;;;;;;8.07;7.27;;;5.00;1.00;;;;;;6283197;28;20593;-57
2023/01/06 01:25:47;;;;;;;6.00;5.47;;;5.40;1.00;;;;;;6282262;28;20241;-57
2023/01/06 01:28:51;;;;;;;9.63;5.63;;;5.10;1.00;;;;;;6257525;28;20261;-57
2023/01/06 01:31:54;;;;;;;8.27;5.63;;;5.30;1.00;;;;;;6268136;28;20443;-57
2023/01/06 01:34:57;;;;;;;5.80;5.23;;;5.40;1.00;;;;;;6280608;28;20241;-57
2023/01/06 01:38:00;;;;;;;6.13;5.50;;;5.00;1.00;;;;;;6271087;28;20229;-50
2023/01/06 01:41:04;;;;;;;7.47;5.70;;;5.30;1.00;;;;;;6283019;28;20241;-56
2023/01/06 01:44:40;;;;;;;5.07;4.73;;;5.10;1.00;;;;;;6270114;28;20394;-56
2023/01/06 01:47:48;;;;;;;6.87;4.93;;;5.10;1.00;;;;;;6256772;28;20298;-58
2023/01/06 01:50:55;;;;;;;5.03;4.63;;;5.10;1.00;;;;;;6257199;28;20237;-57
2023/01/06 01:54:00;;;;;;;4.80;4.40;;;5.00;1.00;;;;;;6275927;28;20437;-57
2023/01/06 01:57:08;;;;;;;5.70;4.60;;;5.40;1.00;;;;;;6281578;28;20744;-57
2023/01/06 02:00:12;;;;;;;6.20;5.03;;;5.40;1.00;;;;;;6282566;28;20237;-56
2023/01/06 02:03:16;;;;;;;6.67;5.53;;;5.10;1.00;;;;;;6277739;28;20229;-57
2023/01/06 02:06:21;;;;;;;6.67;4.93;;;5.30;1.00;;;;;;6277662;28;20233;-57
2023/01/06 02:09:28;;;;;;;6.00;4.50;;;5.40;1.00;;;;;;6281635;28;20732;-55
2023/01/06 02:12:31;;;;;;;5.33;5.03;;;5.20;1.00;;;;;;6265309;28;20723;-56
2023/01/06 02:15:34;;;;;;;6.93;4.77;;;5.50;1.00;;;;;;6257903;28;20718;-57
2023/01/06 02:18:53;;;;;;;5.30;4.63;;;5.40;1.00;;;;;;6256875;28;20249;-56
2023/01/06 02:22:15;;;;;;;5.47;4.97;;;5.30;1.00;;;;;;6257994;28;20242;-57
2023/01/06 02:25:47;;;;;;;4.80;4.50;;;5.40;1.00;;;;;;6260719;28;20306;-57
2023/01/06 02:29:19;;;;;;;5.37;4.80;;;5.10;1.00;;;;;;6261824;28;20721;-57
2023/01/06 02:32:36;;;;;;;6.00;4.40;;;5.00;1.00;;;;;;6276066;28;20359;-56
2023/01/06 02:35:57;;;;;;;4.70;4.27;;;5.30;1.00;;;;;;6285601;28;20764;-57
2023/01/06 02:39:13;;;;;;;4.40;4.13;;;5.30;1.00;;;;;;6283888;28;20242;-56
2023/01/06 02:42:20;;;;;;;7.33;4.40;;;5.10;1.00;;;;;;6286520;28;20237;-58
2023/01/06 02:45:35;;;;;;;5.00;4.60;;;5.10;1.00;;;;;;6286887;28;20700;-56
2023/01/06 02:48:50;;;;;;;4.30;3.97;;;5.20;1.00;;;;;;6275880;28;20937;-56
2023/01/06 02:51:58;;;;;;;4.50;4.23;;;4.90;1.00;;;;;;6261838;28;20241;-56
2023/01/06 02:55:05;;;;;;;3.87;3.77;;;5.00;1.00;;;;;;6260913;28;20230;-56
2023/01/06 02:58:14;;;;;;;4.67;3.97;;;5.40;1.00;;;;;;6260634;28;20635;-56
2023/01/06 03:01:23;;;;;;;5.60;3.97;;;5.00;1.00;;;;;;6261051;28;20809;-58
2023/01/06 03:04:33;;;;;;;4.40;3.93;;;5.40;1.00;;;;;;6283753;28;20857;-56
2023/01/06 03:07:38;;;;;;;4.13;3.83;;;5.00;1.00;;;;;;6276127;28;20225;-56
2023/01/06 03:10:44;;;;;;;4.10;4.00;;;5.20;1.00;;;;;;6272763;28;20760;-57
2023/01/06 03:13:52;;;;;;;4.10;3.90;;;5.10;1.00;;;;;;6260614;28;20488;-57
2023/01/06 03:16:55;;;;;;;4.13;3.83;;;5.20;1.00;;;;;;6282079;28;20399;-57
2023/01/06 03:20:00;;;;;;;3.97;3.73;;;5.00;1.00;;;;;;6280019;28;20564;-55
2023/01/06 03:23:03;;;;;;;3.63;3.50;;;5.40;1.00;;;;;;6285064;28;20669;-55
2023/01/06 03:26:06;;;;;;;4.53;4.07;;;5.40;1.00;;;;;;6262496;28;20371;-57
2023/01/06 03:29:13;;;;;;;4.37;4.07;;;5.10;1.00;;;;;;6259833;28;20298;-56
2023/01/06 03:32:22;;;;;;;4.73;3.60;;;5.10;1.00;;;;;;6266700;28;20336;-57
2023/01/06 03:35:47;;;;;;;3.93;3.60;;;5.00;1.00;;;;;;6283899;28;20258;-61
2023/01/06 03:39:02;;;;;;;4.13;3.77;;;5.40;1.00;;;;;;6285877;28;20233;-57
2023/01/06 03:45:49;;;;;;;3.63;3.50;;;5.20;1.00;;;;;;6259665;28;20226;-57
2023/01/06 03:49:05;;;;;;;3.90;3.70;;;5.10;1.00;;;;;;6259902;28;20468;-56
2023/01/06 03:52:18;;;;;;;3.77;3.57;;;5.40;1.00;;;;;;6259885;28;20226;-57
2023/01/06 03:55:25;;;;;;;4.23;3.93;;;5.20;1.00;;;;;;6260171;28;20237;-57
2023/01/06 03:58:30;;;;;;;3.97;3.87;;;5.10;1.00;;;;;;6259645;28;20616;-57
2023/01/06 04:01:34;;;;;;;4.10;3.77;;;5.10;1.00;;;;;;6264433;28;20238;-57
2023/01/06 04:04:37;;;;;;;3.70;3.40;;;5.40;1.00;;;;;;6280888;28;20465;-56
2023/01/06 04:07:42;;;;;;;3.50;3.40;;;5.00;1.00;;;;;;6281746;28;20246;-57
2023/01/06 04:10:45;;;;;;;3.70;3.40;;;5.30;1.00;;;;;;6284015;28;20688;-57
2023/01/06 04:13:47;;;;;;;4.03;3.80;;;5.20;1.00;;;;;;6283410;28;20241;-56
2023/01/06 04:16:50;;;;;;;3.87;3.67;;;5.20;1.00;;;;;;6258841;28;20316;-57
2023/01/06 04:19:53;;;;;;;3.47;3.37;;;5.50;1.00;;;;;;6259387;28;20249;-56
2023/01/06 04:22:58;;;;;;;4.03;3.83;;;5.40;1.00;;;;;;6259208;28;20320;-56
2023/01/06 04:26:01;;;;;;;3.73;3.63;;;5.10;1.00;;;;;;6259370;28;20469;-57
2023/01/06 04:29:04;;;;;;;3.93;3.67;;;5.10;1.00;;;;;;6258206;28;20912;-57
2023/01/06 04:32:06;;;;;;;3.77;3.47;;;5.20;1.00;;;;;;6247609;28;20591;-56
2023/01/06 04:35:10;;;;;;;3.83;3.40;;;5.20;1.00;;;;;;6278597;28;20639;-56
2023/01/06 04:38:14;;;;;;;3.93;3.63;;;5.30;1.00;;;;;;6277974;28;21046;-56
2023/01/06 04:41:18;;;;;;;3.63;3.33;;;5.50;1.00;;;;;;6271852;28;20233;-57
2023/01/06 04:44:21;;;;;;;3.73;3.40;;;5.60;1.00;;;;;;6278376;28;20233;-57
2023/01/06 04:47:23;;;;;;;4.03;3.83;;;5.40;1.00;;;;;;6275789;28;20263;-57
2023/01/06 04:50:26;;;;;;;3.53;3.40;;;5.20;1.00;;;;;;6270549;28;20237;-57
2023/01/06 04:53:34;;;;;;;3.60;3.30;;;5.50;1.00;;;;;;6273091;28;20221;-58
2023/01/06 04:56:37;;;;;;;4.20;4.00;;;5.20;1.00;;;;;;6277015;28;20333;-57
2023/01/06 04:59:40;;;;;;;4.97;3.97;;;5.30;1.00;;;;;;6281712;28;20670;-57
2023/01/06 05:02:43;;;;;;;3.73;3.53;;;5.20;1.00;;;;;;6277423;28;20245;-57
2023/01/06 05:05:46;;;;;;;3.93;3.77;;;5.30;1.00;;;;;;6287958;28;20604;-57
2023/01/06 05:08:50;;;;;;;3.70;3.50;;;5.20;1.00;;;;;;6285546;28;20387;-56
2023/01/06 05:11:53;;;;;;;3.73;3.40;;;5.30;1.00;;;;;;6278297;28;20234;-57
2023/01/06 05:14:56;;;;;;;4.03;3.70;;;5.20;1.00;;;;;;6282372;28;20319;-56
2023/01/06 05:17:59;;;;;;;3.90;3.63;;;5.30;1.00;;;;;;6279067;28;20241;-56
2023/01/06 05:21:02;;;;;;;4.07;3.80;;;5.40;1.00;;;;;;6287722;28;20233;-57
2023/01/06 05:24:09;;;;;;;3.90;3.60;;;5.20;1.00;;;;;;6288731;28;20235;-57
2023/01/06 05:27:13;;;;;;;4.13;3.80;;;5.30;1.00;;;;;;6281734;28;20308;-58
2023/01/06 05:30:16;;;;;;;4.67;4.27;;;5.20;1.00;;;;;;6270306;28;20229;-57
2023/01/06 05:33:19;;;;;;;5.57;3.93;;;5.50;1.00;;;;;;6264230;28;20229;-54
2023/01/06 05:36:22;;;;;;;4.43;3.90;;;5.20;1.00;;;;;;6282924;28;20244;-55
2023/01/06 05:39:27;;;;;;;4.10;3.80;;;5.20;1.00;;;;;;6283398;28;20282;-56
2023/01/06 05:42:30;;;;;;;4.80;4.40;;;5.30;1.00;;;;;;6279517;28;20238;-57
2023/01/06 05:45:33;;;;;;;5.50;3.93;;;5.50;1.00;;;;;;6276721;28;20233;-56
2023/01/06 05:48:37;;;;;;;4.00;3.80;;;5.40;1.00;;;;;;6283570;28;20809;-58
2023/01/06 05:51:40;;;;;;;4.30;4.00;;;5.50;1.00;;;;;;6279805;28;20476;-55
2023/01/06 05:54:45;;;;;;;4.17;3.77;;;5.40;1.00;;;;;;6281677;28;20247;-57
2023/01/06 05:57:48;;;;;;;4.10;3.83;;;5.20;1.00;;;;;;6275571;28;20286;-57
2023/01/06 06:00:51;;;;;;;4.43;4.17;;;5.20;1.00;;;;;;6296101;28;20244;-58
2023/01/06 06:03:55;;;;;;;4.40;4.10;;;5.20;1.00;;;;;;6290762;28;20234;-55
2023/01/06 06:06:58;;;;;;;5.60;4.50;;;5.50;1.00;;;;;;6287137;28;20244;-57
2023/01/06 06:10:03;;;;;;;4.70;4.17;;;5.50;1.00;;;;;;6294785;28;20240;-56
2023/01/06 06:13:06;;;;;;;5.43;4.53;;;5.70;1.00;;;;;;6283889;28;20245;-56
2023/01/06 06:16:11;;;;;;;5.67;4.30;;;5.40;1.00;;;;;;6288266;28;25225;-57
2023/01/06 06:19:14;;;;;;;4.67;4.27;;;5.60;1.00;;;;;;6292299;28;20346;-57
2023/01/06 06:22:18;;;;;;;5.17;4.77;;;5.40;1.00;;;;;;6279643;28;20240;-56
2023/01/06 06:25:22;;;;;;;5.13;4.73;;;5.60;1.00;;;;;;6282028;28;20237;-56
2023/01/06 06:28:25;;;;;;;4.60;4.40;;;5.60;1.00;;;;;;6282894;28;20692;-58
2023/01/06 06:31:29;;;;;;;5.10;4.77;;;5.70;1.00;;;;;;6288300;28;20236;-56
2023/01/06 06:34:32;;;;;;;4.40;4.03;;;5.70;1.00;;;;;;6282389;28;20229;-56
2023/01/06 06:37:35;;;;;;;5.20;4.80;;;5.60;1.00;;;;;;6273902;28;20244;-57
2023/01/06 06:40:43;;;;;;;5.40;4.53;;;5.60;1.00;;;;;;6284457;28;20232;-57
2023/01/06 06:43:48;;;;;;;5.80;4.60;;;5.70;1.00;;;;;;6291854;28;20467;-56
2023/01/06 06:46:51;;;;;;;5.27;4.87;;;5.70;1.00;;;;;;6282054;28;20753;-57
2023/01/06 06:49:54;;;;;;;5.80;5.20;;;5.50;1.00;;;;;;6288889;28;20241;-57
2023/01/06 06:52:57;;;;;;;6.27;5.40;;;5.70;1.00;;;;;;6288059;28;20241;-56
2023/01/06 06:56:01;;;;;;;7.97;5.60;;;5.50;1.00;;;;;;6281590;28;20229;-57
2023/01/06 06:59:04;;;;;;;6.00;5.43;;;5.60;1.00;;;;;;6291302;28;20241;-56
2023/01/06 07:02:08;;;;;;;7.47;5.97;;;5.40;1.00;;;;;;6292606;28;20243;-56
2023/01/06 07:05:11;;;;;;;9.10;5.90;;;5.80;1.00;;;;;;6286589;28;20738;-57
2023/01/06 07:08:15;;;;;;;7.23;6.47;;;5.40;1.00;;;;;;6291023;28;20248;-61
2023/01/06 07:11:19;;;;;;;8.67;6.70;;;5.50;1.00;;;;;;6286016;28;20237;-57
2023/01/06 07:14:22;;;;;;;6.63;6.13;;;5.60;1.00;;;;;;6280585;28;20233;-57
2023/01/06 07:17:26;;;;;;;7.87;7.17;;;5.50;1.00;;;;;;6286016;28;20229;-58
2023/01/06 07:20:30;;;;;;;9.30;6.20;;;5.60;1.00;;;;;;6285287;28;20233;-57
2023/01/06 07:23:33;;;;;;;10.33;6.17;;;5.70;1.00;;;;;;6282287;28;20736;-56
2023/01/06 07:26:38;;;;;;;7.70;6.37;;;5.70;1.00;;;;;;6290568;28;20233;-56
2023/01/06 07:29:41;;;;;;;9.73;6.93;;;5.60;1.00;;;;;;6287043;28;20229;-56
2023/01/06 07:32:44;;;;;;;9.87;6.70;;;5.70;1.00;;;;;;6271235;28;20304;-58
2023/01/06 07:35:47;;;;;;;8.07;6.73;;;5.60;1.00;;;;;;6276620;28;20733;-56
2023/01/06 07:38:50;;;;;;;7.83;7.13;;;5.50;1.00;;;;;;6276296;28;20249;-56
2023/01/06 07:41:54;;;;;;;15.10;7.37;;;6.00;1.00;;;;;;6292515;28;20244;-55
2023/01/06 07:44:57;;;;;;;9.33;8.23;;;5.90;1.00;;;;;;6283579;28;20237;-57
2023/01/06 07:48:01;;;;;;;11.07;7.67;;;5.70;1.00;;;;;;6273723;28;20242;-56
2023/01/06 07:51:04;;;;;;;10.37;8.37;;;5.60;1.00;;;;;;6288607;28;20745;-55
2023/01/06 07:54:07;;;;;;;13.57;8.70;;;5.80;1.00;;;;;;6284006;28;20238;-57
2023/01/06 07:57:11;;;;;;;8.70;7.90;;;5.80;1.00;;;;;;6289343;28;20229;-56
2023/01/06 08:00:15;;;;;;;8.70;7.93;;;5.80;1.00;;;;;;6281849;28;20245;-56
2023/01/06 08:03:18;;;;;;;11.47;7.93;;;5.90;1.00;;;;;;6286274;28;20725;-56
2023/01/06 08:06:21;;;;;;;10.13;9.13;;;5.70;1.00;;;;;;6276685;28;20612;-57
2023/01/06 08:09:24;;;;;;;9.77;8.77;;;5.90;1.00;;;;;;6278863;28;20233;-55
2023/01/06 08:12:29;;;;;;;8.67;7.93;;;5.90;1.00;;;;;;6290170;28;20240;-57
2023/01/06 08:15:31;;;;;;;10.83;9.73;;;5.90;1.00;;;;;;6285024;28;20229;-56
2023/01/06 08:18:35;;;;;;;10.47;9.10;;;6.00;1.00;;;;;;6287712;28;20308;-57
2023/01/06 08:21:38;;;;;;;10.77;9.73;;;6.00;1.00;;;;;;6275449;28;20611;-57
2023/01/06 08:24:41;;;;;;;12.60;9.67;;;6.20;1.00;;;;;;6283282;28;20255;-57
2023/01/06 08:27:45;;;;;;;11.53;9.93;;;6.20;1.00;;;;;;6286206;28;20249;-55
2023/01/06 08:30:48;;;;;;;15.77;9.77;;;6.10;1.00;;;;;;6286194;28;20229;-56
2023/01/06 08:33:52;;;;;;;17.60;10.90;;;6.20;1.00;;;;;;6287326;28;20268;-54
2023/01/06 08:36:55;;;;;;;14.33;10.40;;;6.30;1.00;;;;;;6282134;28;20248;-55
2023/01/06 08:39:58;;;;;;;15.07;10.47;;;5.90;1.00;;;;;;6286641;28;20365;-57
2023/01/06 08:43:02;;;;;;;11.60;10.00;;;6.00;1.00;;;;;;6289865;28;20240;-56
2023/01/06 08:46:08;;;;;;;12.10;10.87;;;6.00;1.00;;;;;;6271669;28;20383;-55
2023/01/06 08:49:11;;;;;;;11.63;10.37;;;6.10;1.00;;;;;;6282980;28;20582;-57
2023/01/06 08:52:14;;;;;;;13.87;11.47;;;6.30;1.00;;;;;;6283394;28;20228;-56
2023/01/06 08:55:17;;;;;;;14.43;11.97;;;6.00;1.00;;;;;;6276351;28;20252;-56
2023/01/06 08:58:21;;;;;;;15.97;12.40;;;6.00;1.00;;;;;;6287527;28;20233;-56
2023/01/06 09:01:26;;;;;;;13.30;12.10;;;6.20;1.00;;;;;;6288438;28;20225;-55
2023/01/06 09:04:29;;;;;;;15.47;12.33;;;6.40;1.00;;;;;;6285631;28;20312;-56
2023/01/06 09:07:32;;;;;;;18.33;12.50;;;6.20;1.00;;;;;;6286664;28;20233;-55
2023/01/06 09:10:37;;;;;;;16.00;12.03;;;6.30;1.00;;;;;;6285082;28;20246;-55
2023/01/06 09:13:41;;;;;;;18.77;12.77;;;6.40;1.00;;;;;;6280134;28;20225;-56
2023/01/06 09:16:46;;;;;;;20.37;13.77;;;6.20;1.00;;;;;;6280166;28;20244;-56
2023/01/06 09:19:49;;;;;;;18.10;13.63;;;6.40;1.00;;;;;;6281867;28;20241;-56
2023/01/06 09:22:52;;;;;;;18.27;13.47;;;6.30;1.00;;;;;;6282123;28;20241;-57
2023/01/06 09:25:55;;;;;;;15.10;13.57;;;6.50;1.00;;;;;;6274625;28;20237;-56
2023/01/06 09:29:00;;;;;;;18.50;14.90;;;6.70;1.00;;;;;;6275546;28;20268;-56
2023/01/06 09:32:03;;;;;;;16.23;14.50;;;6.50;1.00;;;;;;6285005;28;21635;-56
2023/01/06 09:35:07;;;;;;;16.03;14.10;;;6.70;1.00;;;;;;6280295;28;20234;-55
2023/01/06 09:38:10;;;;;;;19.87;14.37;;;6.70;1.00;;;;;;6286962;28;20259;-56
2023/01/06 09:41:32;;;;;;;19.97;13.33;;;6.60;1.00;;;;;;6287829;28;20252;-56
2023/01/06 09:44:46;;;;;;;16.97;14.23;;;7.10;1.00;;;;;;6287360;28;20232;-57
2023/01/06 09:47:54;;;;;;;17.33;13.30;;;7.00;1.00;;;;;;6281685;28;20248;-55
2023/01/06 09:51:03;;;;;;;16.17;13.27;;;7.10;1.00;;;;;;6288347;28;20321;-55
2023/01/06 09:54:13;;;;;;;16.93;14.47;;;7.10;1.00;;;;;;6283094;28;20234;-56
2023/01/06 09:57:21;;;;;;;16.13;14.43;;;7.30;1.00;;;;;;6286593;28;20380;-56
2023/01/06 10:00:35;;;;;;;23.80;15.63;;;7.20;1.00;;;;;;6281823;28;20233;-56
2023/01/06 10:03:38;;;;;;;25.27;16.87;;;7.20;1.00;;;;;;6289588;28;20245;-55
2023/01/06 10:06:44;;;;;;;20.87;16.43;;;7.50;1.00;;;;;;6285323;28;20368;-55
2023/01/06 10:09:57;;;;;;;17.23;14.77;;;7.30;1.00;;;;;;6284761;28;20237;-57
2023/01/06 10:13:12;;;;;;;19.13;15.00;;;7.40;1.00;;;;;;6282402;28;20579;-55
2023/01/06 10:16:28;;;;;;;18.23;14.47;;;7.30;1.00;;;;;;6284976;28;20883;-55
2023/01/06 10:19:47;;;;;;;16.43;14.60;;;7.60;1.00;;;;;;6290211;28;20263;-56
2023/01/06 10:22:57;;;;;;;17.07;14.90;;;7.60;1.00;;;;;;6285403;28;20488;-56
2023/01/06 10:26:11;;;;;;;20.00;14.50;;;7.70;1.00;;;;;;6285471;28;20769;-56
2023/01/06 10:29:17;;;;;;;19.87;14.07;;;7.80;1.00;;;;;;6290437;28;20244;-56
2023/01/06 10:32:24;;;;;;;22.10;15.30;;;7.80;1.00;;;;;;6280503;28;20237;-54
2023/01/06 10:35:28;;;;;;;21.00;14.87;;;7.80;1.00;;;;;;6289014;28;20237;-58
2023/01/06 10:38:35;;;;;;;19.73;15.00;;;7.80;1.00;;;;;;6283028;28;20446;-56
2023/01/06 10:41:46;;;;;;;19.57;15.40;;;7.90;1.00;;;;;;6285535;28;20328;-57
2023/01/06 10:44:49;;;;;;;18.60;14.37;;;8.00;1.00;;;;;;6294117;28;20534;-56
2023/01/06 10:47:54;;;;;;;16.47;14.70;;;8.00;1.00;;;;;;6286439;28;20241;-58
2023/01/06 10:50:58;;;;;;;17.70;14.00;;;8.10;1.00;;;;;;6285411;28;20286;-56
2023/01/06 10:54:03;;;;;;;19.47;14.30;;;8.10;1.00;;;;;;6280918;28;20253;-56
2023/01/06 10:57:12;;;;;;;20.00;14.73;;;8.30;1.00;;;;;;6291521;28;20878;-56
2023/01/06 11:00:19;;;;;;;18.80;13.73;;;8.30;1.00;;;;;;6297659;28;20228;-57
2023/01/06 11:03:23;;;;;;;15.40;13.80;;;8.30;1.00;;;;;;6288276;28;20238;-56
2023/01/06 11:06:38;;;;;;;18.07;15.23;;;8.30;1.00;;;;;;6281226;28;20432;-54
2023/01/06 11:09:43;;;;;;;15.50;13.90;;;8.40;1.00;;;;;;6287194;28;20234;-55
2023/01/06 11:12:46;;;;;;;16.57;14.33;;;8.50;1.00;;;;;;6282071;28;20241;-55
2023/01/06 11:15:50;;;;;;;15.87;14.27;;;8.50;1.00;;;;;;6296207;28;20238;-55
2023/01/06 11:18:57;;;;;;;20.90;15.23;;;8.50;1.00;;;;;;6284677;28;20252;-55
2023/01/06 11:22:00;;;;;;;17.23;14.83;;;8.50;1.00;;;;;;6278737;28;20322;-56
2023/01/06 11:25:21;;;;;;;15.63;14.07;;;8.60;1.00;;;;;;6290440;28;20234;-56
2023/01/06 11:28:25;;;;;;;15.20;11.83;;;8.60;1.00;;;;;;6283180;28;20240;-57
2023/01/06 11:31:28;;;;;;;15.10;13.30;;;8.70;1.00;;;;;;6281528;28;20233;-57
2023/01/06 11:34:33;;;;;;;15.17;13.63;;;8.70;1.00;;;;;;6282203;28;20459;-56
2023/01/06 11:37:39;;;;;;;13.67;12.33;;;8.80;1.00;;;;;;6276694;28;20236;-56
2023/01/06 11:40:44;;;;;;;13.60;12.17;;;8.90;1.00;;;;;;6284335;28;20709;-56
2023/01/06 11:43:47;;;;;;;13.30;12.00;;;9.10;1.00;;;;;;6283935;28;20237;-58
2023/01/06 11:46:59;;;;;;;13.00;11.70;;;8.90;1.00;;;;;;6284200;28;20780;-55
2023/01/06 11:50:05;;;;;;;13.10;11.90;;;8.90;1.00;;;;;;6284400;28;20241;-56
2023/01/06 11:53:17;;;;;;;12.03;10.83;;;9.00;1.00;;;;;;6281433;28;20245;-56
2023/01/06 11:56:20;;;;;;;12.77;11.57;;;9.10;1.00;;;;;;6289102;28;20225;-54
2023/01/06 11:59:25;;;;;;;12.57;11.27;;;9.10;1.00;;;;;;6280510;28;20518;-56
2023/01/06 12:02:35;;;;;;;11.27;10.27;;;9.10;1.00;;;;;;6289102;28;20644;-55
2023/01/06 12:05:46;;;;;;;13.27;11.17;;;9.20;1.00;;;;;;6280957;28;20229;-56
2023/01/06 12:08:55;;;;;;;11.40;10.27;;;9.20;1.00;;;;;;6280960;28;20445;-55
2023/01/06 12:12:02;;;;;;;11.23;9.43;;;9.30;1.00;;;;;;6282415;28;20375;-55
2023/01/06 12:15:12;;;;;;;11.40;10.27;;;9.30;1.00;;;;;;6274498;28;20237;-58
2023/01/06 12:18:21;;;;;;;10.70;9.90;;;9.30;1.00;;;;;;6274169;28;20268;-55
2023/01/06 12:21:30;;;;;;;10.73;9.60;;;9.40;1.00;;;;;;6289443;28;20594;-55
2023/01/06 12:24:34;;;;;;;12.03;9.40;;;9.50;1.00;;;;;;6283585;28;20236;-56
2023/01/06 12:27:42;;;;;;;11.00;9.90;;;9.50;1.00;;;;;;6286151;28;20693;-56
2023/01/06 12:30:52;;;;;;;10.27;9.27;;;9.50;1.00;;;;;;6276763;28;20230;-55
2023/01/06 12:34:00;;;;;;;10.97;9.87;;;9.50;1.00;;;;;;6290075;28;20715;-54
2023/01/06 12:37:15;;;;;;;9.63;8.67;;;9.50;1.00;;;;;;6282331;28;20257;-56
2023/01/06 12:40:26;;;;;;;9.30;8.60;;;9.60;1.00;;;;;;6286725;28;20276;-56
2023/01/06 12:43:33;;;;;;;8.60;7.90;;;9.70;1.00;;;;;;6277850;28;20229;-56
2023/01/06 12:46:40;;;;;;;9.07;8.27;;;9.80;1.00;;;;;;6282882;28;20233;-55
2023/01/06 12:49:48;;;;;;;8.83;8.00;;;9.90;1.00;;;;;;6284454;28;20225;-56
2023/01/06 12:52:57;;;;;;;8.57;7.73;;;9.90;1.00;;;;;;6280863;28;20236;-56
2023/01/06 12:56:21;;;;;;;7.83;7.23;;;9.90;1.00;;;;;;6285482;28;20441;-56
2023/01/06 12:59:34;;;;;;;7.80;7.20;;;10.00;1.00;;;;;;6283965;28;20252;-55
2023/01/06 13:02:53;;;;;;;7.87;7.17;;;10.00;1.00;;;;;;6282139;28;20706;-53
2023/01/06 13:06:13;;;;;;;7.17;6.70;;;10.00;1.00;;;;;;6274044;28;20375;-55
2023/01/06 13:09:30;;;;;;;6.80;6.43;;;10.00;1.00;;;;;;6280053;28;20256;-56
2023/01/06 13:12:52;;;;;;;7.13;6.63;;;10.10;1.00;;;;;;6277478;28;20705;-55
2023/01/06 13:16:00;;;;;;;6.73;6.20;;;10.10;1.00;;;;;;6283644;28;20233;-54
2023/01/06 13:19:14;;;;;;;6.87;6.47;;;10.20;1.00;;;;;;6276656;28;21449;-54
2023/01/06 13:22:23;;;;;;;6.27;5.87;;;10.20;1.00;;;;;;6277386;28;20241;-54
2023/01/06 13:25:57;;;;;;;5.73;5.43;;;10.30;1.00;;;;;;6289093;28;20244;-56
2023/01/06 13:29:08;;;;;;;5.17;4.87;;;10.30;1.00;;;;;;6279942;28;20856;-55
2023/01/06 13:32:31;;;;;;;5.03;4.87;;;10.30;1.00;;;;;;6289172;28;20248;-54
2023/01/06 13:36:01;;;;;;;5.47;5.00;;;10.30;1.00;;;;;;6274250;28;20232;-53
2023/01/06 13:39:07;;;;;;;4.83;4.43;;;10.30;1.00;;;;;;6276299;28;20229;-55
2023/01/06 13:42:15;;;;;;;4.63;4.23;;;10.40;1.00;;;;;;6278923;28;20237;-55
2023/01/06 13:45:22;;;;;;;4.20;4.00;;;10.50;1.00;;;;;;6283216;28;20617;-55
2023/01/06 13:48:29;;;;;;;4.00;3.77;;;10.50;1.00;;;;;;6282427;28;20455;-56
2023/01/06 13:51:34;;;;;;;4.30;4.10;;;10.50;1.00;;;;;;6280151;28;20229;-54
2023/01/06 13:55:05;;;;;;;4.33;4.07;;;10.50;1.00;;;;;;6285530;28;20240;-55
2023/01/06 13:58:44;;;;;;;3.53;3.43;;;10.50;1.00;;;;;;6291493;28;20252;-54
2023/01/06 14:01:48;;;;;;;3.77;3.57;;;10.60;1.00;;;;;;6276511;28;20240;-54
2023/01/06 14:04:51;;;;;;;3.30;3.20;;;10.60;1.00;;;;;;6282448;28;20238;-55
2023/01/06 14:07:58;;;;;;;3.67;3.37;;;10.60;1.00;;;;;;6280626;28;20499;-55
2023/01/06 14:11:06;;;;;;;3.57;3.40;;;10.60;1.00;;;;;;6279883;28;20328;-55
2023/01/06 14:14:25;;;;;;;3.03;2.90;;;10.70;1.00;;;;;;6288573;28;20248;-55
2023/01/06 14:17:37;;;;;;;3.33;3.20;;;10.60;1.00;;;;;;6275419;28;20226;-56
2023/01/06 14:20:40;;;;;;;3.40;3.30;;;10.60;1.00;;;;;;6282212;28;20240;-55
2023/01/06 14:23:52;;;;;;;2.70;2.70;;;10.60;1.00;;;;;;6285959;28;20710;-56
2023/01/06 14:26:59;;;;;;;3.20;3.10;;;10.60;1.00;;;;;;6287496;28;20276;-56
2023/01/06 14:30:18;;;;;;;3.00;3.00;;;10.60;1.00;;;;;;6291205;28;20334;-56
2023/01/06 14:33:34;;;;;;;2.70;2.70;;;10.70;1.00;;;;;;6292188;28;20581;-55
2023/01/06 14:36:37;;;;;;;2.80;2.60;;;10.70;1.00;;;;;;6283897;28;20230;-55
2023/01/06 14:39:46;;;;;;;3.10;3.00;;;10.70;1.00;;;;;;6284483;28;20230;-54
2023/01/06 14:42:51;;;;;;;2.90;2.90;;;10.70;1.00;;;;;;6280433;28;20229;-56
2023/01/06 14:45:54;;;;;;;5.60;2.80;;;10.70;1.00;;;;;;6285061;28;20241;-59
2023/01/06 14:49:01;;;;;;;3.50;3.30;;;10.60;1.00;;;;;;6284818;28;20494;-57
2023/01/06 14:52:10;;;;;;;2.90;2.87;;;10.60;1.00;;;;;;6279077;28;20229;-54
2023/01/06 14:55:17;;;;;;;3.30;3.23;;;10.50;1.00;;;;;;6286590;28;20237;-55
2023/01/06 14:58:30;;;;;;;2.90;2.90;;;10.50;1.00;;;;;;6284589;28;20679;-54
2023/01/06 15:01:35;;;;;;;3.60;3.20;;;10.40;1.00;;;;;;6282023;28;20296;-53
2023/01/06 15:04:42;;;;;;;4.70;4.40;;;10.40;1.00;;;;;;6269593;28;20232;-58
2023/01/06 15:07:56;;;;;;;3.43;3.33;;;10.40;1.00;;;;;;6284273;28;20237;-55
2023/01/06 15:11:12;;;;;;;3.20;3.10;;;10.40;1.00;;;;;;6285957;28;20226;-55
2023/01/06 15:14:26;;;;;;;2.80;2.80;;;10.30;1.00;;;;;;6282163;28;20638;-56
2023/01/06 15:17:29;;;;;;;3.17;2.97;;;10.20;1.00;;;;;;6277265;28;20229;-56
2023/01/06 15:20:38;;;;;;;3.07;3.07;;;10.20;1.00;;;;;;6280535;28;20248;-54
2023/01/06 15:23:46;;;;;;;3.40;3.30;;;10.30;1.00;;;;;;6287271;28;20606;-55
2023/01/06 15:26:49;;;;;;;3.20;3.10;;;10.20;1.00;;;;;;6283943;28;20732;-54
2023/01/06 15:29:55;;;;;;;3.60;3.40;;;10.10;1.00;;;;;;6286651;28;20323;-56
2023/01/06 15:32:58;;;;;;;3.70;3.50;;;10.10;1.00;;;;;;6292730;28;20408;-56
2023/01/06 15:36:04;;;;;;;4.00;3.90;;;10.00;1.00;;;;;;6287685;28;20324;-54
2023/01/06 15:39:09;;;;;;;3.67;3.47;;;10.00;1.00;;;;;;6281641;28;20610;-55
2023/01/06 15:42:15;;;;;;;3.77;3.67;;;10.00;1.00;;;;;;6284090;28;20231;-56
2023/01/06 15:45:27;;;;;;;3.20;3.20;;;10.00;1.00;;;;;;6288871;28;20248;-54
2023/01/06 15:48:32;;;;;;;3.70;3.60;;;10.00;1.00;;;;;;6283127;28;20237;-56
2023/01/06 15:51:36;;;;;;;3.67;3.37;;;10.00;1.00;;;;;;6287939;28;20233;-54
2023/01/06 15:54:45;;;;;;;3.40;3.30;;;9.90;1.00;;;;;;6271381;28;20248;-54
2023/01/06 15:57:54;;;;;;;3.70;3.40;;;9.90;1.00;;;;;;6283017;28;20609;-55
2023/01/06 16:01:00;;;;;;;5.23;4.83;;;9.90;1.00;;;;;;6285940;28;20234;-56
2023/01/06 16:04:03;;;;;;;3.80;3.60;;;9.90;1.00;;;;;;6282162;28;20734;-55
2023/01/06 16:07:33;;;;;;;3.60;3.50;;;9.90;1.00;;;;;;6281640;28;20729;-55
2023/01/06 16:10:38;;;;;;;4.00;3.93;;;9.90;1.00;;;;;;6275327;28;20229;-55
2023/01/06 16:13:42;;;;;;;3.83;3.63;;;9.80;1.00;;;;;;6286031;28;20591;-54
2023/01/06 16:16:45;;;;;;;4.00;3.80;;;9.90;1.00;;;;;;6280872;28;20234;-56
2023/01/06 16:19:51;;;;;;;3.53;3.43;;;9.80;1.00;;;;;;6284555;28;20618;-55
2023/01/06 16:22:56;;;;;;;3.43;3.43;;;9.80;1.00;;;;;;6283476;28;20486;-54
2023/01/06 16:26:08;;;;;;;4.00;3.90;;;9.80;1.00;;;;;;6276282;28;20232;-54
2023/01/06 16:29:25;;;;;;;4.13;3.87;;;9.80;1.00;;;;;;6288367;28;20654;-54
2023/01/06 16:32:37;;;;;;;4.57;4.27;;;9.80;1.00;;;;;;6296570;28;20237;-55